Time;durP1;ratioP1;P1;durP2;ratioP2;P2;SDS_P1;SDS_P2;PMS_P1;PMS_P2;Temp;Humidity;BMP_temperature;BMP_pressure;BME280_temperature;BME280_humidity;BME280_pressure;Samples;Min_cycle;Max_cycle;Signal;HPM_P1;HPM_P2
2023/05/16 00:00:15;;;;;;;7.30;4.40;;;;;;;;;;107920;1247;25473;-79
2023/05/16 00:03:02;;;;;;;8.40;4.40;;;;;;;;;;107896;1248;25436;-78
2023/05/16 00:05:28;;;;;;;10.20;6.00;;;;;;;;;;110637;1247;22196;-78
2023/05/16 00:07:54;;;;;;;12.80;5.70;;;;;;;;;;108989;1248;22690;-77
2023/05/16 00:10:21;;;;;;;9.40;5.30;;;;;;;;;;107876;1248;25312;-77
2023/05/16 00:12:50;;;;;;;8.80;5.00;;;;;;;;;;107928;1252;25217;-77
2023/05/16 00:15:17;;;;;;;7.20;4.30;;;;;;;;;;107908;1253;25325;-79
2023/05/16 00:17:45;;;;;;;7.10;4.70;;;;;;;;;;107893;1248;25350;-77
2023/05/16 00:20:16;;;;;;;13.30;6.00;;;;;;;;;;110255;1247;22904;-78
2023/05/16 00:22:42;;;;;;;15.40;8.50;;;;;;;;;;111015;1247;22337;-78
2023/05/16 00:25:08;;;;;;;13.80;10.80;;;;;;;;;;111058;1247;22579;-79
2023/05/16 00:27:35;;;;;;;10.60;6.60;;;;;;;;;;111053;1247;22220;-77
2023/05/16 00:30:02;;;;;;;14.40;11.60;;;;;;;;;;111007;1247;22184;-78
2023/05/16 00:32:28;;;;;;;10.90;5.60;;;;;;;;;;110851;1247;22324;-77
2023/05/16 00:34:55;;;;;;;9.00;5.40;;;;;;;;;;110981;1247;22378;-77
2023/05/16 00:37:21;;;;;;;9.70;5.20;;;;;;;;;;111026;1248;23016;-75
2023/05/16 00:39:47;;;;;;;9.00;5.40;;;;;;;;;;111071;1247;22856;-75
2023/05/16 00:42:14;;;;;;;8.80;5.10;;;;;;;;;;111038;1247;22382;-77
2023/05/16 00:44:40;;;;;;;8.60;5.20;;;;;;;;;;111021;1247;23087;-77
2023/05/16 00:47:07;;;;;;;11.00;7.40;;;;;;;;;;111008;1247;22471;-77
2023/05/16 00:49:33;;;;;;;11.10;6.50;;;;;;;;;;110999;1248;23219;-77
2023/05/16 00:51:59;;;;;;;16.20;8.80;;;;;;;;;;111023;1247;22347;-76
2023/05/16 00:54:28;;;;;;;16.20;11.20;;;;;;;;;;108369;1247;22518;-77
2023/05/16 00:56:55;;;;;;;9.50;6.80;;;;;;;;;;107934;1247;22520;-79
2023/05/16 00:59:21;;;;;;;12.70;6.70;;;;;;;;;;107901;1247;22653;-79
2023/05/16 01:01:49;;;;;;;10.80;8.20;;;;;;;;;;107869;1250;22528;-79
2023/05/16 01:04:15;;;;;;;7.20;5.30;;;;;;;;;;108985;1250;22423;-77
2023/05/16 01:06:42;;;;;;;6.90;4.30;;;;;;;;;;110868;1249;23228;-79
2023/05/16 01:09:09;;;;;;;6.20;4.10;;;;;;;;;;110907;1250;23016;-77
2023/05/16 01:11:40;;;;;;;8.00;4.10;;;;;;;;;;110841;1249;22389;-79
2023/05/16 01:14:11;;;;;;;8.00;4.60;;;;;;;;;;110751;1250;22320;-79
2023/05/16 01:16:45;;;;;;;8.70;4.90;;;;;;;;;;110738;1250;22655;-78
2023/05/16 01:19:31;;;;;;;8.90;4.40;;;;;;;;;;110981;1247;22394;-79
2023/05/16 01:22:20;;;;;;;10.00;8.70;;;;;;;;;;110995;1247;22408;-79
2023/05/16 01:25:05;;;;;;;9.30;6.90;;;;;;;;;;110859;1247;22322;-79
2023/05/16 01:27:33;;;;;;;18.70;16.00;;;;;;;;;;111033;1247;22151;-77
2023/05/16 01:29:59;;;;;;;13.60;9.90;;;;;;;;;;111004;1247;23097;-76
2023/05/16 01:32:26;;;;;;;9.40;7.30;;;;;;;;;;110988;1247;22840;-77
2023/05/16 01:34:52;;;;;;;13.20;8.90;;;;;;;;;;110977;1247;22472;-76
2023/05/16 01:37:20;;;;;;;9.60;5.70;;;;;;;;;;111029;1247;22094;-76
2023/05/16 01:39:49;;;;;;;11.30;5.30;;;;;;;;;;110888;1247;23028;-76
2023/05/16 01:42:17;;;;;;;7.80;4.10;;;;;;;;;;111073;1247;22454;-75
2023/05/16 01:44:44;;;;;;;7.60;4.30;;;;;;;;;;111004;1247;22324;-75
2023/05/16 01:47:12;;;;;;;6.70;4.30;;;;;;;;;;110835;1247;22445;-76
2023/05/16 01:49:40;;;;;;;4.90;3.60;;;;;;;;;;110991;1247;22339;-76
2023/05/16 01:52:14;;;;;;;10.00;9.10;;;;;;;;;;110852;1247;22325;-75
2023/05/16 01:54:42;;;;;;;12.20;9.80;;;;;;;;;;111015;1247;23258;-77
2023/05/16 01:57:08;;;;;;;7.80;3.80;;;;;;;;;;110812;1249;22384;-75
2023/05/16 01:59:34;;;;;;;6.40;3.70;;;;;;;;;;110737;1249;143456;-77
2023/05/16 02:02:01;;;;;;;8.40;6.70;;;;;;;;;;108509;1247;22560;-79
2023/05/16 02:04:27;;;;;;;11.40;9.70;;;;;;;;;;108755;1247;22204;-79
2023/05/16 02:06:53;;;;;;;10.40;4.30;;;;;;;;;;111012;1247;23042;-77
2023/05/16 02:09:20;;;;;;;7.40;4.60;;;;;;;;;;110749;1247;58144;-79
2023/05/16 02:11:46;;;;;;;10.50;4.70;;;;;;;;;;111009;1248;23217;-79
2023/05/16 02:14:12;;;;;;;8.30;5.10;;;;;;;;;;111031;1248;22212;-77
2023/05/16 02:16:39;;;;;;;9.90;5.00;;;;;;;;;;111011;1248;22402;-79
2023/05/16 02:19:05;;;;;;;7.10;4.60;;;;;;;;;;111022;1247;22194;-78
2023/05/16 02:21:31;;;;;;;8.10;5.20;;;;;;;;;;111005;1249;22228;-79
2023/05/16 02:23:58;;;;;;;6.50;4.50;;;;;;;;;;110986;1248;22109;-78
2023/05/16 02:26:24;;;;;;;8.00;4.30;;;;;;;;;;111016;1247;22305;-78
2023/05/16 02:28:51;;;;;;;6.00;4.70;;;;;;;;;;111040;1247;22508;-77
2023/05/16 02:31:27;;;;;;;8.70;4.80;;;;;;;;;;111018;1247;22254;-77
2023/05/16 02:33:53;;;;;;;7.30;5.10;;;;;;;;;;111017;1247;22394;-79
2023/05/16 02:36:20;;;;;;;10.80;8.00;;;;;;;;;;111006;1247;22219;-77
2023/05/16 02:38:46;;;;;;;9.30;6.70;;;;;;;;;;111033;1247;22208;-78
2023/05/16 02:41:13;;;;;;;10.80;7.70;;;;;;;;;;111008;1247;22323;-77
2023/05/16 02:43:39;;;;;;;7.70;5.20;;;;;;;;;;110995;1247;22369;-77
2023/05/16 02:46:19;;;;;;;9.10;4.40;;;;;;;;;;111014;1247;22387;-77
2023/05/16 02:48:45;;;;;;;11.80;5.40;;;;;;;;;;110970;1248;22345;-77
2023/05/16 02:51:12;;;;;;;7.40;4.60;;;;;;;;;;110993;1252;22345;-77
2023/05/16 02:53:39;;;;;;;8.30;6.40;;;;;;;;;;110847;1247;22346;-77
2023/05/16 02:56:05;;;;;;;8.00;7.20;;;;;;;;;;110993;1247;22431;-75
2023/05/16 02:58:33;;;;;;;11.20;10.10;;;;;;;;;;111012;1251;22460;-76
2023/05/16 03:00:59;;;;;;;12.10;10.90;;;;;;;;;;110872;1250;22293;-76
2023/05/16 03:03:26;;;;;;;8.30;5.20;;;;;;;;;;110846;1249;23106;-75
2023/05/16 03:05:52;;;;;;;9.60;4.60;;;;;;;;;;110864;1249;22236;-77
2023/05/16 03:08:18;;;;;;;17.60;13.70;;;;;;;;;;110883;1249;22568;-76
2023/05/16 03:10:45;;;;;;;12.80;5.20;;;;;;;;;;110842;1250;22274;-77
2023/05/16 03:13:11;;;;;;;12.60;7.60;;;;;;;;;;110824;1249;22372;-76
2023/05/16 03:15:37;;;;;;;8.20;6.40;;;;;;;;;;110869;1250;22420;-75
2023/05/16 03:18:04;;;;;;;8.90;5.50;;;;;;;;;;110886;1248;22228;-76
2023/05/16 03:20:30;;;;;;;7.40;4.90;;;;;;;;;;110992;1247;22877;-77
2023/05/16 03:22:56;;;;;;;8.50;5.90;;;;;;;;;;111023;1247;22253;-75
2023/05/16 03:25:23;;;;;;;8.20;5.10;;;;;;;;;;111018;1251;22900;-77
2023/05/16 03:27:49;;;;;;;12.00;7.30;;;;;;;;;;110849;1247;22154;-77
2023/05/16 03:30:15;;;;;;;8.00;5.60;;;;;;;;;;111007;1248;22371;-77
2023/05/16 03:32:43;;;;;;;10.10;5.40;;;;;;;;;;107957;1253;24182;-77
2023/05/16 03:35:10;;;;;;;12.80;7.90;;;;;;;;;;107924;1253;22528;-79
2023/05/16 03:37:37;;;;;;;16.40;14.40;;;;;;;;;;107851;1251;22522;-79
2023/05/16 03:40:04;;;;;;;14.40;13.00;;;;;;;;;;107826;1248;24949;-79
2023/05/16 03:42:31;;;;;;;9.30;6.60;;;;;;;;;;107855;1249;25492;-79
2023/05/16 03:44:57;;;;;;;10.60;5.30;;;;;;;;;;107698;1248;25242;-79
2023/05/16 03:47:24;;;;;;;11.50;5.80;;;;;;;;;;107860;1253;22529;-79
2023/05/16 03:49:50;;;;;;;14.00;6.60;;;;;;;;;;107898;1248;25305;-79
2023/05/16 03:52:16;;;;;;;9.50;5.30;;;;;;;;;;107883;1251;22531;-77
2023/05/16 03:54:43;;;;;;;6.70;5.70;;;;;;;;;;107875;1248;22624;-78
2023/05/16 03:57:09;;;;;;;7.60;5.00;;;;;;;;;;107922;1248;22514;-77
2023/05/16 03:59:37;;;;;;;7.80;5.80;;;;;;;;;;107849;1250;25300;-77
2023/05/16 04:02:04;;;;;;;15.20;10.30;;;;;;;;;;107817;1251;22536;-79
2023/05/16 04:04:31;;;;;;;21.30;12.90;;;;;;;;;;107697;1251;23478;-79
2023/05/16 04:06:57;;;;;;;8.20;6.00;;;;;;;;;;107665;1253;22541;-79
2023/05/16 04:09:23;;;;;;;8.80;5.50;;;;;;;;;;107692;1251;22518;-78
2023/05/16 04:11:50;;;;;;;6.50;4.50;;;;;;;;;;107669;1253;22548;-79
2023/05/16 04:14:17;;;;;;;9.80;7.50;;;;;;;;;;107651;1251;22521;-77
2023/05/16 04:16:43;;;;;;;9.90;6.80;;;;;;;;;;107640;1251;22997;-77
2023/05/16 04:19:09;;;;;;;10.20;6.60;;;;;;;;;;107689;1250;22618;-77
2023/05/16 04:21:36;;;;;;;7.90;5.00;;;;;;;;;;107918;1248;25315;-77
2023/05/16 04:24:02;;;;;;;6.30;5.60;;;;;;;;;;107853;1253;23005;-77
2023/05/16 04:26:29;;;;;;;9.50;4.80;;;;;;;;;;107859;1253;23013;-77
2023/05/16 04:28:55;;;;;;;11.80;6.00;;;;;;;;;;107887;1249;22536;-79
2023/05/16 04:31:22;;;;;;;5.60;4.10;;;;;;;;;;107901;1253;22774;-77
2023/05/16 04:33:48;;;;;;;8.00;5.00;;;;;;;;;;107889;1253;25495;-79
2023/05/16 04:36:14;;;;;;;7.40;4.60;;;;;;;;;;107879;1248;25378;-79
2023/05/16 04:38:41;;;;;;;9.60;4.00;;;;;;;;;;107891;1248;22650;-79
2023/05/16 04:41:08;;;;;;;12.40;7.50;;;;;;;;;;107838;1253;25051;-77
2023/05/16 04:43:34;;;;;;;7.00;3.90;;;;;;;;;;107902;1253;22532;-79
2023/05/16 04:46:01;;;;;;;7.00;3.30;;;;;;;;;;107852;1252;22525;-77
2023/05/16 04:48:27;;;;;;;5.70;3.70;;;;;;;;;;107851;1252;22517;-80
2023/05/16 04:50:54;;;;;;;8.60;4.60;;;;;;;;;;107887;1253;22560;-77
2023/05/16 04:53:20;;;;;;;10.50;4.60;;;;;;;;;;107900;1252;25204;-77
2023/05/16 04:55:46;;;;;;;9.80;4.40;;;;;;;;;;107915;1253;22525;-77
2023/05/16 04:58:13;;;;;;;6.90;3.50;;;;;;;;;;107978;1248;22515;-78
2023/05/16 05:00:40;;;;;;;8.00;4.20;;;;;;;;;;107963;1252;24251;-79
2023/05/16 05:03:06;;;;;;;8.60;4.30;;;;;;;;;;108207;1248;23119;-79
2023/05/16 05:05:33;;;;;;;7.50;4.20;;;;;;;;;;109088;1248;25444;-79
2023/05/16 05:08:00;;;;;;;6.70;3.50;;;;;;;;;;107999;1248;23291;-77
2023/05/16 05:10:26;;;;;;;12.80;4.30;;;;;;;;;;107717;1254;22546;-79
2023/05/16 05:12:53;;;;;;;7.50;4.70;;;;;;;;;;107838;1253;23175;-78
2023/05/16 05:15:19;;;;;;;12.40;5.90;;;;;;;;;;107870;1253;24240;-79
2023/05/16 05:17:45;;;;;;;10.90;5.70;;;;;;;;;;107841;1248;22540;-77
2023/05/16 05:20:12;;;;;;;16.20;6.60;;;;;;;;;;109143;1250;22530;-77
2023/05/16 05:22:38;;;;;;;8.40;5.90;;;;;;;;;;107896;1247;26141;-77
2023/05/16 05:25:05;;;;;;;11.30;5.80;;;;;;;;;;107906;1248;22500;-79
2023/05/16 05:27:31;;;;;;;10.50;5.70;;;;;;;;;;108100;1253;22529;-77
2023/05/16 05:29:57;;;;;;;6.60;5.10;;;;;;;;;;108085;1247;23950;-80
2023/05/16 05:32:24;;;;;;;13.80;5.90;;;;;;;;;;108025;1248;22574;-77
2023/05/16 05:34:51;;;;;;;8.10;4.60;;;;;;;;;;109891;1248;25300;-79
2023/05/16 05:37:17;;;;;;;6.90;4.50;;;;;;;;;;108358;1253;22559;-77
2023/05/16 05:39:44;;;;;;;11.00;3.80;;;;;;;;;;108315;1250;22677;-79
2023/05/16 05:42:11;;;;;;;14.20;4.80;;;;;;;;;;107971;1253;22531;-77
2023/05/16 05:44:37;;;;;;;6.10;4.30;;;;;;;;;;107746;1254;22576;-77
2023/05/16 05:47:04;;;;;;;6.20;4.20;;;;;;;;;;107970;1253;26467;-79
2023/05/16 05:49:31;;;;;;;6.10;4.50;;;;;;;;;;109139;1248;22391;-79
2023/05/16 05:51:57;;;;;;;5.70;4.00;;;;;;;;;;108143;1253;26813;-77
2023/05/16 05:54:23;;;;;;;7.30;4.90;;;;;;;;;;108546;1248;22520;-79
2023/05/16 05:56:50;;;;;;;10.00;5.20;;;;;;;;;;108126;1253;25434;-79
2023/05/16 05:59:16;;;;;;;9.80;5.10;;;;;;;;;;108307;1252;22644;-77
2023/05/16 06:01:43;;;;;;;7.40;4.50;;;;;;;;;;108011;1248;22558;-77
2023/05/16 06:04:10;;;;;;;8.90;5.10;;;;;;;;;;108024;1248;23240;-79
2023/05/16 06:06:36;;;;;;;7.10;4.10;;;;;;;;;;108016;1253;25315;-78
2023/05/16 06:09:02;;;;;;;12.10;5.60;;;;;;;;;;108078;1253;25198;-78
2023/05/16 06:11:29;;;;;;;7.30;5.40;;;;;;;;;;108222;1248;23751;-79
2023/05/16 06:13:55;;;;;;;10.50;4.90;;;;;;;;;;107944;1253;25732;-77
2023/05/16 06:16:24;;;;;;;8.10;4.70;;;;;;;;;;107943;1251;23051;-79
2023/05/16 06:18:51;;;;;;;13.80;5.80;;;;;;;;;;107993;1250;25129;-79
2023/05/16 06:21:17;;;;;;;4.60;3.60;;;;;;;;;;107938;1247;23732;-79
2023/05/16 06:23:44;;;;;;;7.60;3.80;;;;;;;;;;107994;1253;25224;-77
2023/05/16 06:26:10;;;;;;;4.70;3.60;;;;;;;;;;107947;1248;22715;-77
2023/05/16 06:28:37;;;;;;;6.70;3.80;;;;;;;;;;108266;1251;23962;-79
2023/05/16 06:31:03;;;;;;;4.20;3.40;;;;;;;;;;107777;1250;22528;-77
2023/05/16 06:33:30;;;;;;;19.30;11.00;;;;;;;;;;107979;1252;25405;-79
2023/05/16 06:35:56;;;;;;;16.50;9.10;;;;;;;;;;107860;1251;22538;-78
2023/05/16 06:38:22;;;;;;;7.80;4.90;;;;;;;;;;108810;1247;22467;-77
2023/05/16 06:40:49;;;;;;;4.90;3.70;;;;;;;;;;109935;1247;24216;-77
2023/05/16 06:43:15;;;;;;;6.50;3.70;;;;;;;;;;108032;1248;24596;-79
2023/05/16 06:45:43;;;;;;;17.70;9.10;;;;;;;;;;108199;1247;22566;-77
2023/05/16 06:48:10;;;;;;;13.80;8.20;;;;;;;;;;108168;1251;23332;-77
2023/05/16 06:50:36;;;;;;;9.70;5.10;;;;;;;;;;110697;1248;22579;-79
2023/05/16 06:53:03;;;;;;;7.40;5.80;;;;;;;;;;108233;1248;25156;-77
2023/05/16 06:55:30;;;;;;;9.90;7.40;;;;;;;;;;108197;1247;25315;-79
2023/05/16 06:57:56;;;;;;;7.50;4.30;;;;;;;;;;108290;1248;22522;-77
2023/05/16 07:00:22;;;;;;;7.40;4.30;;;;;;;;;;108161;1247;23044;-79
2023/05/16 07:02:49;;;;;;;4.20;3.50;;;;;;;;;;108130;1248;27604;-79
2023/05/16 07:05:15;;;;;;;4.60;4.10;;;;;;;;;;108077;1247;22645;-79
2023/05/16 07:07:42;;;;;;;5.10;3.60;;;;;;;;;;107996;1247;25482;-77
2023/05/16 07:10:08;;;;;;;4.70;3.70;;;;;;;;;;108143;1248;22528;-78
2023/05/16 07:12:36;;;;;;;6.50;3.10;;;;;;;;;;107984;1248;23224;-79
2023/05/16 07:15:03;;;;;;;6.10;3.80;;;;;;;;;;107946;1247;25271;-79
2023/05/16 07:17:29;;;;;;;5.50;3.80;;;;;;;;;;107957;1248;22570;-79
2023/05/16 07:19:56;;;;;;;6.80;3.70;;;;;;;;;;108002;1253;22564;-77
2023/05/16 07:22:22;;;;;;;5.70;3.50;;;;;;;;;;107959;1248;24233;-77
2023/05/16 07:24:49;;;;;;;7.10;3.80;;;;;;;;;;108027;1248;24185;-77
2023/05/16 07:27:15;;;;;;;4.20;3.50;;;;;;;;;;107967;1251;25439;-80
2023/05/16 07:29:41;;;;;;;4.80;3.10;;;;;;;;;;108035;1253;22780;-80
2023/05/16 07:32:08;;;;;;;6.50;3.70;;;;;;;;;;108019;1248;22639;-80
2023/05/16 07:34:34;;;;;;;3.80;3.40;;;;;;;;;;107947;1248;22514;-80
2023/05/16 07:37:00;;;;;;;3.90;3.20;;;;;;;;;;107963;1248;24233;-78
2023/05/16 07:39:26;;;;;;;4.90;2.80;;;;;;;;;;108000;1247;22521;-77
2023/05/16 07:41:53;;;;;;;5.70;4.20;;;;;;;;;;107946;1247;25377;-81
2023/05/16 07:44:19;;;;;;;4.50;3.20;;;;;;;;;;107916;1248;22857;-80
2023/05/16 07:46:45;;;;;;;3.80;3.10;;;;;;;;;;108028;1248;22558;-77
2023/05/16 07:49:12;;;;;;;3.80;3.30;;;;;;;;;;107993;1251;25216;-77
2023/05/16 07:51:38;;;;;;;6.90;3.50;;;;;;;;;;107992;1247;25288;-80
2023/05/16 07:54:05;;;;;;;7.00;3.80;;;;;;;;;;108111;1248;22522;-78
2023/05/16 07:56:31;;;;;;;5.00;2.90;;;;;;;;;;108040;1247;22663;-80
2023/05/16 07:58:58;;;;;;;5.70;3.50;;;;;;;;;;108066;1248;23064;-77
2023/05/16 08:01:25;;;;;;;5.10;2.90;;;;;;;;;;107870;1247;22639;-80
2023/05/16 08:03:52;;;;;;;3.60;3.10;;;;;;;;;;108066;1247;25271;-78
2023/05/16 08:06:18;;;;;;;14.30;4.20;;;;;;;;;;108220;1247;22523;-77
2023/05/16 08:08:45;;;;;;;6.80;3.60;;;;;;;;;;108102;1247;22529;-80
2023/05/16 08:11:11;;;;;;;7.60;4.20;;;;;;;;;;108697;1247;22581;-77
2023/05/16 08:13:38;;;;;;;6.30;3.80;;;;;;;;;;107984;1248;22531;-78
2023/05/16 08:16:04;;;;;;;4.60;3.50;;;;;;;;;;108088;1247;22531;-78
2023/05/16 08:18:31;;;;;;;4.30;3.50;;;;;;;;;;108039;1247;22532;-77
2023/05/16 08:20:57;;;;;;;9.60;3.60;;;;;;;;;;108024;1247;24218;-80
2023/05/16 08:23:23;;;;;;;4.30;3.80;;;;;;;;;;107954;1247;25374;-78
2023/05/16 08:25:50;;;;;;;8.60;3.60;;;;;;;;;;107881;1247;23007;-78
2023/05/16 08:28:16;;;;;;;5.00;3.20;;;;;;;;;;107948;1247;25061;-78
2023/05/16 08:30:43;;;;;;;3.70;3.10;;;;;;;;;;107974;1247;22574;-80
2023/05/16 08:33:09;;;;;;;4.10;3.50;;;;;;;;;;107844;1252;22518;-78
2023/05/16 08:35:35;;;;;;;4.60;3.40;;;;;;;;;;107949;1248;22576;-80
2023/05/16 08:38:02;;;;;;;6.30;3.40;;;;;;;;;;108129;1248;26469;-78
2023/05/16 08:40:28;;;;;;;7.60;3.00;;;;;;;;;;108154;1248;26320;-78
2023/05/16 08:42:54;;;;;;;5.70;3.60;;;;;;;;;;109404;1247;23030;-78
2023/05/16 08:45:21;;;;;;;4.40;2.80;;;;;;;;;;110909;1248;22274;-81
2023/05/16 08:47:48;;;;;;;3.30;2.50;;;;;;;;;;108969;1248;22550;-78
2023/05/16 08:50:15;;;;;;;5.10;2.80;;;;;;;;;;108112;1248;22528;-80
2023/05/16 08:52:42;;;;;;;3.80;2.90;;;;;;;;;;107932;1248;22527;-81
2023/05/16 08:55:09;;;;;;;3.70;3.30;;;;;;;;;;108162;1253;23458;-78
2023/05/16 08:57:35;;;;;;;3.70;3.10;;;;;;;;;;107971;1247;22607;-81
2023/05/16 09:00:06;;;;;;;3.80;2.90;;;;;;;;;;108240;1248;24247;-80
2023/05/16 09:02:32;;;;;;;8.00;3.10;;;;;;;;;;108089;1253;22597;-81
2023/05/16 09:04:59;;;;;;;4.60;2.50;;;;;;;;;;107755;1253;22533;-81
2023/05/16 09:07:25;;;;;;;4.10;3.30;;;;;;;;;;107987;1248;22528;-81
2023/05/16 09:09:51;;;;;;;5.40;2.70;;;;;;;;;;108160;1247;24196;-77
2023/05/16 09:12:18;;;;;;;3.90;3.30;;;;;;;;;;108146;1248;25386;-78
2023/05/16 09:14:46;;;;;;;5.30;3.10;;;;;;;;;;109153;1248;22547;-77
2023/05/16 09:17:14;;;;;;;6.50;3.40;;;;;;;;;;109043;1248;23666;-82
2023/05/16 09:19:41;;;;;;;5.00;3.20;;;;;;;;;;108069;1248;22636;-78
2023/05/16 09:22:08;;;;;;;4.10;2.60;;;;;;;;;;107999;1253;22524;-80
2023/05/16 09:24:38;;;;;;;4.50;2.50;;;;;;;;;;108574;1252;25338;-81
2023/05/16 09:27:12;;;;;;;4.10;3.00;;;;;;;;;;107973;1253;25261;-80
2023/05/16 09:29:41;;;;;;;4.50;2.90;;;;;;;;;;108044;1247;24279;-78
2023/05/16 09:32:14;;;;;;;4.60;3.00;;;;;;;;;;107946;1253;26471;-78
2023/05/16 09:34:44;;;;;;;7.40;3.00;;;;;;;;;;107929;1247;23036;-80
2023/05/16 09:37:11;;;;;;;7.00;3.10;;;;;;;;;;107892;1250;25367;-80
2023/05/16 09:39:39;;;;;;;5.50;3.60;;;;;;;;;;108105;1247;22921;-80
2023/05/16 09:42:05;;;;;;;5.10;3.30;;;;;;;;;;107919;1252;22541;-78
2023/05/16 09:44:32;;;;;;;3.90;3.10;;;;;;;;;;107990;1247;23030;-78
2023/05/16 09:46:59;;;;;;;5.40;2.80;;;;;;;;;;107906;1247;22854;-81
2023/05/16 09:49:26;;;;;;;3.40;3.10;;;;;;;;;;108124;1252;26467;-80
2023/05/16 09:51:52;;;;;;;4.40;3.30;;;;;;;;;;107863;1248;24241;-78
2023/05/16 09:54:28;;;;;;;4.10;2.90;;;;;;;;;;108510;1247;22583;-81
2023/05/16 09:56:54;;;;;;;5.10;3.20;;;;;;;;;;107988;1252;22514;-82
2023/05/16 09:59:21;;;;;;;3.40;3.00;;;;;;;;;;108077;1247;25347;-79
2023/05/16 10:01:47;;;;;;;5.00;3.10;;;;;;;;;;107981;1247;23220;-79
2023/05/16 10:04:15;;;;;;;6.80;2.80;;;;;;;;;;107734;1248;22862;-78
2023/05/16 10:06:41;;;;;;;6.30;4.00;;;;;;;;;;108043;1247;25494;-79
2023/05/16 10:09:11;;;;;;;4.10;2.70;;;;;;;;;;108226;1247;22811;-81
2023/05/16 10:11:39;;;;;;;5.40;2.80;;;;;;;;;;108008;1248;26074;-78
2023/05/16 10:14:05;;;;;;;5.10;3.30;;;;;;;;;;108585;1248;22518;-81
2023/05/16 10:16:31;;;;;;;3.50;3.00;;;;;;;;;;108658;1248;25502;-81
2023/05/16 10:18:59;;;;;;;6.10;3.70;;;;;;;;;;108613;1250;22521;-79
2023/05/16 10:21:25;;;;;;;4.40;3.20;;;;;;;;;;108547;1253;22570;-81
2023/05/16 10:23:51;;;;;;;4.00;3.40;;;;;;;;;;108616;1248;23312;-78
2023/05/16 10:26:18;;;;;;;6.70;3.60;;;;;;;;;;108643;1247;22591;-81
2023/05/16 10:28:44;;;;;;;7.70;3.60;;;;;;;;;;109112;1247;22543;-81
2023/05/16 10:31:10;;;;;;;8.30;5.00;;;;;;;;;;108935;1247;23249;-81
2023/05/16 10:33:37;;;;;;;3.80;3.10;;;;;;;;;;108848;1250;22608;-78
2023/05/16 10:36:04;;;;;;;4.30;3.70;;;;;;;;;;108768;1253;22577;-81
2023/05/16 10:38:30;;;;;;;6.60;3.70;;;;;;;;;;109067;1247;22580;-79
2023/05/16 10:40:57;;;;;;;5.10;3.90;;;;;;;;;;108984;1247;22531;-78
2023/05/16 10:43:24;;;;;;;9.10;4.70;;;;;;;;;;108532;1250;58649;-79
2023/05/16 10:45:58;;;;;;;4.70;4.10;;;;;;;;;;108859;1248;22529;-80
2023/05/16 10:48:28;;;;;;;5.00;4.60;;;;;;;;;;108753;1247;22566;-79
2023/05/16 10:50:54;;;;;;;4.30;3.50;;;;;;;;;;108602;1248;22528;-81
2023/05/16 10:53:21;;;;;;;6.70;4.10;;;;;;;;;;108928;1247;22693;-81
2023/05/16 10:55:47;;;;;;;6.00;4.10;;;;;;;;;;108949;1247;26461;-79
2023/05/16 10:58:33;;;;;;;4.50;3.20;;;;;;;;;;109027;1248;56258;-78
2023/05/16 11:01:22;;;;;;;5.50;3.60;;;;;;;;;;109048;1247;22521;-78
2023/05/16 11:03:58;;;;;;;6.70;3.70;;;;;;;;;;109230;1247;58930;-80
2023/05/16 11:06:25;;;;;;;5.50;4.00;;;;;;;;;;108162;1247;57753;-78
2023/05/16 11:09:04;;;;;;;7.60;4.30;;;;;;;;;;108051;1247;57841;-78
2023/05/16 11:11:37;;;;;;;5.30;4.50;;;;;;;;;;108030;1247;22515;-81
2023/05/16 11:14:03;;;;;;;7.60;4.30;;;;;;;;;;107839;1252;22629;-79
2023/05/16 11:16:30;;;;;;;8.40;3.90;;;;;;;;;;107816;1247;22948;-78
2023/05/16 11:19:03;;;;;;;6.50;4.00;;;;;;;;;;109645;1250;24245;-80
2023/05/16 11:21:48;;;;;;;5.80;4.00;;;;;;;;;;107613;1251;22515;-78
2023/05/16 11:24:28;;;;;;;7.60;3.40;;;;;;;;;;107747;1252;22517;-78
2023/05/16 11:26:54;;;;;;;8.70;4.10;;;;;;;;;;107699;1249;24254;-78
2023/05/16 11:29:21;;;;;;;4.20;3.80;;;;;;;;;;107828;1247;22674;-80
2023/05/16 11:31:47;;;;;;;10.60;4.70;;;;;;;;;;107585;1251;22551;-79
2023/05/16 11:34:13;;;;;;;6.40;4.40;;;;;;;;;;107604;1250;24217;-80
2023/05/16 11:36:40;;;;;;;14.00;4.70;;;;;;;;;;107782;1250;22649;-80
2023/05/16 11:39:08;;;;;;;7.80;4.10;;;;;;;;;;108079;1247;23271;-78
2023/05/16 11:41:34;;;;;;;7.70;4.30;;;;;;;;;;107863;1251;22854;-78
2023/05/16 11:44:01;;;;;;;9.20;4.70;;;;;;;;;;107794;1250;24358;-80
2023/05/16 11:46:27;;;;;;;5.40;4.40;;;;;;;;;;107776;1248;61222;-77
2023/05/16 11:48:53;;;;;;;6.20;3.80;;;;;;;;;;107969;1251;22557;-78
2023/05/16 11:51:20;;;;;;;8.50;5.10;;;;;;;;;;107853;1251;25414;-77
2023/05/16 11:53:48;;;;;;;9.00;5.70;;;;;;;;;;107793;1250;23600;-80
2023/05/16 11:56:14;;;;;;;6.30;5.50;;;;;;;;;;108428;1248;22574;-81
2023/05/16 11:58:41;;;;;;;10.40;5.30;;;;;;;;;;107973;1250;24253;-78
2023/05/16 12:01:09;;;;;;;11.60;5.90;;;;;;;;;;107885;1250;25271;-81
2023/05/16 12:03:35;;;;;;;6.70;4.40;;;;;;;;;;108005;1250;61103;-78
2023/05/16 12:06:02;;;;;;;8.50;3.90;;;;;;;;;;107818;1247;59095;-80
2023/05/16 12:08:29;;;;;;;7.20;4.80;;;;;;;;;;107833;1250;22518;-77
2023/05/16 12:10:55;;;;;;;8.60;4.40;;;;;;;;;;107835;1250;22668;-77
2023/05/16 12:13:22;;;;;;;4.70;4.20;;;;;;;;;;107707;1250;58568;-77
2023/05/16 12:15:49;;;;;;;5.60;4.50;;;;;;;;;;107874;1251;25515;-80
2023/05/16 12:18:16;;;;;;;7.90;4.20;;;;;;;;;;108357;1250;22529;-78
2023/05/16 12:20:42;;;;;;;4.70;4.20;;;;;;;;;;107655;1250;57108;-77
2023/05/16 12:23:12;;;;;;;9.20;4.20;;;;;;;;;;107760;1250;55274;-77
2023/05/16 12:25:44;;;;;;;5.60;4.50;;;;;;;;;;107804;1250;22573;-80
2023/05/16 12:28:11;;;;;;;6.60;4.50;;;;;;;;;;107971;1253;22488;-80
2023/05/16 12:30:41;;;;;;;7.40;5.30;;;;;;;;;;107887;1249;24186;-78
2023/05/16 12:33:09;;;;;;;4.80;4.30;;;;;;;;;;107839;1250;25006;-80
2023/05/16 12:35:36;;;;;;;7.80;4.70;;;;;;;;;;107829;1250;23073;-76
2023/05/16 12:38:06;;;;;;;5.70;4.10;;;;;;;;;;107908;1250;22778;-76
2023/05/16 12:40:35;;;;;;;5.90;4.20;;;;;;;;;;107829;1249;22651;-77
2023/05/16 12:43:02;;;;;;;8.10;4.60;;;;;;;;;;107737;1250;22614;-79
2023/05/16 12:45:28;;;;;;;9.50;4.70;;;;;;;;;;107760;1250;23809;-77
2023/05/16 12:47:54;;;;;;;9.00;4.80;;;;;;;;;;107835;1250;24400;-81
2023/05/16 12:50:21;;;;;;;10.50;5.00;;;;;;;;;;107851;1252;22577;-77
2023/05/16 12:52:48;;;;;;;5.40;4.10;;;;;;;;;;107777;1248;24624;-81
2023/05/16 12:55:15;;;;;;;7.00;4.70;;;;;;;;;;107890;1248;22521;-77
2023/05/16 12:57:43;;;;;;;6.40;4.80;;;;;;;;;;108023;1250;22651;-80
2023/05/16 13:00:11;;;;;;;7.30;4.00;;;;;;;;;;108040;1247;22517;-77
2023/05/16 13:02:37;;;;;;;5.40;4.60;;;;;;;;;;108209;1247;24300;-80
2023/05/16 13:05:04;;;;;;;5.60;4.30;;;;;;;;;;107848;1247;22520;-77
2023/05/16 13:07:30;;;;;;;7.10;4.60;;;;;;;;;;109111;1250;22456;-80
2023/05/16 13:09:56;;;;;;;6.20;4.90;;;;;;;;;;109834;1251;22523;-81
2023/05/16 13:12:26;;;;;;;4.90;4.20;;;;;;;;;;107895;1247;24244;-77
2023/05/16 13:14:52;;;;;;;6.50;4.10;;;;;;;;;;107853;1251;26476;-77
2023/05/16 13:17:18;;;;;;;4.60;4.10;;;;;;;;;;108048;1247;22660;-79
2023/05/16 13:19:45;;;;;;;9.70;5.00;;;;;;;;;;107912;1248;22863;-76
2023/05/16 13:22:11;;;;;;;5.30;4.60;;;;;;;;;;107996;1247;22596;-81
2023/05/16 13:24:37;;;;;;;19.60;5.20;;;;;;;;;;107945;1250;24254;-80
2023/05/16 13:27:04;;;;;;;7.40;5.30;;;;;;;;;;107820;1250;22604;-77
2023/05/16 13:29:31;;;;;;;5.50;4.90;;;;;;;;;;107896;1250;22531;-77
2023/05/16 13:31:57;;;;;;;6.20;4.80;;;;;;;;;;107927;1250;25416;-80
2023/05/16 13:34:24;;;;;;;4.80;4.40;;;;;;;;;;107930;1253;23302;-80
2023/05/16 13:36:50;;;;;;;6.60;5.30;;;;;;;;;;107845;1247;23954;-76
2023/05/16 13:39:17;;;;;;;7.70;5.90;;;;;;;;;;107956;1253;22587;-80
2023/05/16 13:41:43;;;;;;;5.70;4.70;;;;;;;;;;108035;1253;22552;-80
2023/05/16 13:44:11;;;;;;;10.90;5.60;;;;;;;;;;107905;1248;22542;-76
2023/05/16 13:46:38;;;;;;;7.80;5.30;;;;;;;;;;107836;1250;22655;-77
2023/05/16 13:49:05;;;;;;;9.00;5.20;;;;;;;;;;107918;1250;25393;-81
2023/05/16 13:51:32;;;;;;;8.60;6.00;;;;;;;;;;107802;1249;22954;-80
2023/05/16 13:53:58;;;;;;;38.60;18.30;;;;;;;;;;107777;1251;22517;-79
2023/05/16 13:56:24;;;;;;;16.40;11.00;;;;;;;;;;107988;1249;22532;-79
2023/05/16 13:58:51;;;;;;;8.80;6.20;;;;;;;;;;108144;1248;160878;-80
2023/05/16 14:01:17;;;;;;;10.40;6.10;;;;;;;;;;108115;1249;23696;-77
2023/05/16 14:03:44;;;;;;;6.60;5.30;;;;;;;;;;107979;1250;25335;-77
2023/05/16 14:06:10;;;;;;;12.50;7.90;;;;;;;;;;107888;1250;22519;-80
2023/05/16 14:08:36;;;;;;;35.90;16.20;;;;;;;;;;108208;1250;22631;-80
2023/05/16 14:11:03;;;;;;;16.30;9.90;;;;;;;;;;107932;1250;25291;-80
2023/05/16 14:13:29;;;;;;;11.60;6.60;;;;;;;;;;107917;1250;22540;-77
2023/05/16 14:15:56;;;;;;;15.20;6.80;;;;;;;;;;107834;1250;24218;-77
2023/05/16 14:18:22;;;;;;;7.60;6.70;;;;;;;;;;107945;1250;23036;-77
2023/05/16 14:20:49;;;;;;;41.00;20.40;;;;;;;;;;108387;1249;22534;-77
2023/05/16 14:23:16;;;;;;;101.70;45.90;;;;;;;;;;107749;1248;23206;-77
2023/05/16 14:25:43;;;;;;;21.60;12.30;;;;;;;;;;107952;1247;22536;-77